バロー の空港の天気 - METARとTAF

Barrow, Wiley Post-Will Rogers Memorial Airport ( PABR / BRW ) - アメリカ アラスカ州バロー
飛行場実況気象(Metar)
観測時間09/24 17:53 AKDT (09/25 01:53 UTC)
風向・風速東 6m/s
視程10km以上
天気現象
全天を覆う雲 雲底高度 210m
気温-1℃
湿度100%
気圧1015hPa
METARPABR 250153Z 08012KT 10SM OVC007 M01/M01 A2996
過去の天気等 Google飛行場航空写真 Wunderground天気予報

過去48時間のMETAR

飛行場予報(TAF)
発表時間: 9/24 15:20 AKDT (9/24 23:20 UTC)
予報対象時間: 24日16時 AKDT ~ 25日16時 AKDT
風向・風速東北東 7m/s
視程10km以上
全天を覆う雲 雲底高度 90m
25日0時 AKDT から
風向・風速東 7m/s
視程10km以上
天気現象弱いしゅう雪
全天の8割程度の雲 雲底高度 210m
25日9時 AKDT から
風向・風速東 5m/s
視程10km以上
全天を覆う雲 雲底高度 460m
PABR 242320Z 2500/2524 07013KT P6SM OVC003
FM250800 08013KT P6SM -SHSN BKN007
FM251700 10010KT P6SM OVC015